createdAt,value
2018-07-19T00:01:27.433Z,18.70
2018-07-19T00:03:56.235Z,18.70
2018-07-19T00:06:25.169Z,18.70
2018-07-19T00:08:53.933Z,18.80
2018-07-19T00:11:22.848Z,18.70
2018-07-19T00:13:51.657Z,18.80
2018-07-19T00:16:20.659Z,18.80
2018-07-19T00:18:49.469Z,18.70
2018-07-19T00:21:18.258Z,18.80
2018-07-19T00:23:47.051Z,18.70
2018-07-19T00:26:15.820Z,18.70
2018-07-19T00:28:44.684Z,18.60
2018-07-19T00:31:13.416Z,18.60
2018-07-19T00:33:42.236Z,18.70
2018-07-19T00:36:11.019Z,18.70
2018-07-19T00:38:39.849Z,18.70
2018-07-19T00:41:08.974Z,18.60
2018-07-19T00:43:37.875Z,18.70
2018-07-19T00:46:06.780Z,18.70
2018-07-19T00:48:35.618Z,18.70
2018-07-19T00:51:04.481Z,18.60
2018-07-19T00:53:33.312Z,18.50
2018-07-19T00:56:02.100Z,18.50
2018-07-19T00:58:30.911Z,18.50
2018-07-19T01:00:59.702Z,18.50
2018-07-19T01:03:28.522Z,18.50
2018-07-19T01:05:57.329Z,18.60
2018-07-19T01:08:26.236Z,18.40
2018-07-19T01:10:55.138Z,18.50
2018-07-19T01:13:23.940Z,18.50
2018-07-19T01:15:52.797Z,18.50
2018-07-19T01:18:21.621Z,18.50
2018-07-19T01:20:50.467Z,18.40
2018-07-19T01:23:19.266Z,18.50
2018-07-19T01:25:48.067Z,18.50
2018-07-19T01:28:16.878Z,18.50
2018-07-19T01:30:45.706Z,18.50
2018-07-19T01:33:14.460Z,18.50
2018-07-19T01:35:43.285Z,18.60
2018-07-19T01:38:12.090Z,18.60
2018-07-19T01:40:40.836Z,18.60
2018-07-19T01:43:09.647Z,18.60
2018-07-19T01:45:38.564Z,18.60
2018-07-19T01:48:07.351Z,18.60
2018-07-19T01:50:36.159Z,18.60
2018-07-19T01:53:04.917Z,18.60
2018-07-19T01:55:33.719Z,18.60
2018-07-19T01:58:03.143Z,18.60
2018-07-19T02:00:32.624Z,18.50
2018-07-19T02:03:01.502Z,18.50
2018-07-19T02:05:31.224Z,18.40
2018-07-19T02:08:00.033Z,18.40
2018-07-19T02:10:30.604Z,18.30
2018-07-19T02:12:59.357Z,18.30
2018-07-19T02:15:28.155Z,18.20
2018-07-19T02:17:56.895Z,18.20
2018-07-19T02:20:25.741Z,18.20
2018-07-19T02:22:54.499Z,18.00
2018-07-19T02:25:23.339Z,18.00
2018-07-19T02:30:20.653Z,17.90
2018-07-19T02:32:49.490Z,17.90
2018-07-19T02:35:18.294Z,17.80
2018-07-19T02:37:47.069Z,17.80
2018-07-19T02:40:15.866Z,17.70
2018-07-19T02:42:44.690Z,17.70
2018-07-19T02:45:13.453Z,17.60
2018-07-19T02:47:42.258Z,17.50
2018-07-19T02:50:11.030Z,17.50
2018-07-19T02:52:39.879Z,17.40
2018-07-19T02:55:08.737Z,17.30
2018-07-19T02:57:37.559Z,17.30
2018-07-19T03:00:06.538Z,17.30
2018-07-19T03:02:35.365Z,17.30
2018-07-19T03:05:04.180Z,17.30
2018-07-19T03:07:33.061Z,17.30
2018-07-19T03:10:01.832Z,17.30
2018-07-19T03:12:30.673Z,17.30
2018-07-19T03:14:59.517Z,17.30
2018-07-19T03:17:28.303Z,17.20
2018-07-19T03:19:57.122Z,17.30
2018-07-19T03:22:25.978Z,17.30
2018-07-19T03:24:54.806Z,17.30
2018-07-19T03:27:23.599Z,17.20
2018-07-19T03:29:52.381Z,17.30
2018-07-19T03:32:21.231Z,17.40
2018-07-19T03:34:50.062Z,17.40
2018-07-19T03:37:18.846Z,17.60
2018-07-19T03:39:47.627Z,17.60
2018-07-19T03:42:16.427Z,17.60
2018-07-19T03:44:45.192Z,17.70
2018-07-19T03:47:13.974Z,17.80
2018-07-19T03:49:42.821Z,17.80
2018-07-19T03:52:11.617Z,17.90
2018-07-19T03:54:40.462Z,17.80
2018-07-19T03:57:09.331Z,17.80
2018-07-19T03:59:38.112Z,17.80
2018-07-19T04:02:06.905Z,17.90
2018-07-19T04:04:36.246Z,17.90
2018-07-19T04:07:05.021Z,18.00
2018-07-19T04:09:33.809Z,18.00
2018-07-19T04:12:02.589Z,18.00
2018-07-19T04:14:31.383Z,18.10
2018-07-19T04:17:00.213Z,18.10
2018-07-19T04:19:29.015Z,18.10
2018-07-19T04:21:57.852Z,18.00
2018-07-19T04:24:26.723Z,18.20
2018-07-19T04:26:55.575Z,18.20
2018-07-19T04:29:24.371Z,18.30
2018-07-19T04:31:56.196Z,18.50
2018-07-19T04:34:25.023Z,18.50
2018-07-19T04:36:53.981Z,18.60
2018-07-19T04:39:22.779Z,18.60
2018-07-19T04:41:51.622Z,18.70
2018-07-19T04:44:21.009Z,18.70
2018-07-19T04:46:52.810Z,18.80
2018-07-19T04:49:21.638Z,18.80
2018-07-19T04:51:50.450Z,18.90
2018-07-19T04:54:19.255Z,18.90
2018-07-19T04:56:48.152Z,18.90
2018-07-19T04:59:16.958Z,19.00
2018-07-19T05:01:45.781Z,19.00
2018-07-19T05:04:14.786Z,19.00
2018-07-19T05:06:43.659Z,19.00
2018-07-19T05:09:12.497Z,19.00
2018-07-19T05:11:41.474Z,19.10
2018-07-19T05:14:10.334Z,19.10
2018-07-19T05:16:39.194Z,19.20
2018-07-19T05:19:09.590Z,19.30
2018-07-19T05:21:38.384Z,19.20
2018-07-19T05:24:07.350Z,19.40
2018-07-19T05:26:36.113Z,19.50
2018-07-19T05:29:04.924Z,19.50
2018-07-19T05:31:33.740Z,19.60
2018-07-19T05:34:02.565Z,19.70
2018-07-19T05:36:31.379Z,19.70
2018-07-19T05:39:00.218Z,19.70
2018-07-19T05:41:29.014Z,19.70
2018-07-19T05:43:57.844Z,19.70
2018-07-19T05:46:26.605Z,19.50
2018-07-19T05:48:55.500Z,19.60
2018-07-19T05:51:24.350Z,19.80
2018-07-19T05:53:53.188Z,19.80
2018-07-19T05:56:22.100Z,19.90
2018-07-19T05:58:50.930Z,20.00
2018-07-19T06:01:19.782Z,20.20
2018-07-19T06:03:48.635Z,20.20
2018-07-19T06:06:17.515Z,20.20
2018-07-19T06:08:46.383Z,20.40
2018-07-19T06:11:15.243Z,20.30
2018-07-19T06:13:44.124Z,20.40
2018-07-19T06:16:12.946Z,20.60
2018-07-19T06:18:41.902Z,20.70
2018-07-19T06:21:10.710Z,20.70
2018-07-19T06:23:39.541Z,20.60
2018-07-19T06:26:08.427Z,20.40
2018-07-19T06:28:37.315Z,20.40
2018-07-19T06:31:06.293Z,20.00
2018-07-19T06:33:35.136Z,20.40
2018-07-19T06:36:03.984Z,20.30
2018-07-19T06:38:32.803Z,20.30
2018-07-19T06:41:01.696Z,20.10
2018-07-19T06:43:30.519Z,20.20
2018-07-19T06:45:59.380Z,20.20
2018-07-19T06:48:28.170Z,20.50
2018-07-19T06:50:57.060Z,20.60
2018-07-19T06:53:25.918Z,20.60
2018-07-19T06:55:54.655Z,20.60
2018-07-19T06:58:23.443Z,20.80
2018-07-19T07:00:52.266Z,20.80
2018-07-19T07:03:21.106Z,20.70
2018-07-19T07:05:49.919Z,20.90
2018-07-19T07:08:18.739Z,20.90
2018-07-19T07:10:47.771Z,20.70
2018-07-19T07:13:16.700Z,20.50
2018-07-19T07:15:45.520Z,20.80
2018-07-19T07:18:14.324Z,20.80
2018-07-19T07:20:45.937Z,20.60
2018-07-19T07:23:14.974Z,21.00
2018-07-19T07:25:50.743Z,21.00
2018-07-19T07:28:20.989Z,21.20
2018-07-19T07:30:49.984Z,21.10
2018-07-19T07:33:19.357Z,21.20
2018-07-19T07:35:48.933Z,21.20
2018-07-19T07:38:18.813Z,21.10
2018-07-19T07:40:48.251Z,21.10
2018-07-19T07:43:17.145Z,20.80
2018-07-19T07:45:46.008Z,20.90
2018-07-19T07:48:14.851Z,21.00
2018-07-19T07:50:43.660Z,21.20
2018-07-19T07:53:12.535Z,21.30
2018-07-19T07:55:41.383Z,21.30
2018-07-19T07:58:10.208Z,21.40
2018-07-19T08:00:39.185Z,21.30
2018-07-19T08:03:08.084Z,21.40
2018-07-19T08:05:36.865Z,21.40
2018-07-19T08:08:05.700Z,21.10
2018-07-19T08:10:34.597Z,21.00
2018-07-19T08:13:03.475Z,21.10
2018-07-19T08:15:32.372Z,21.00
2018-07-19T08:18:01.255Z,21.20
2018-07-19T08:20:30.043Z,21.30
2018-07-19T08:22:59.513Z,21.40
2018-07-19T08:25:28.336Z,21.50
2018-07-19T08:27:57.130Z,21.40
2018-07-19T08:30:25.968Z,21.40
2018-07-19T08:32:54.888Z,21.50
2018-07-19T08:35:23.721Z,21.40
2018-07-19T08:37:53.579Z,21.50
2018-07-19T08:40:22.463Z,21.70
2018-07-19T08:42:51.916Z,21.70
2018-07-19T08:45:20.717Z,21.60
2018-07-19T08:47:49.568Z,21.60
2018-07-19T08:50:18.384Z,21.90
2018-07-19T08:52:47.228Z,21.90
2018-07-19T08:55:16.097Z,22.10
2018-07-19T08:57:44.995Z,21.90
2018-07-19T09:00:13.878Z,22.10
2018-07-19T09:02:42.751Z,21.90
2018-07-19T09:05:11.609Z,22.10
2018-07-19T09:07:40.409Z,21.80
2018-07-19T09:10:09.276Z,22.10
2018-07-19T09:12:38.129Z,22.10
2018-07-19T09:15:07.053Z,22.00
2018-07-19T09:17:35.900Z,22.00
2018-07-19T09:20:04.954Z,22.10
2018-07-19T09:22:33.823Z,22.20
2018-07-19T09:25:02.611Z,22.10
2018-07-19T09:27:31.383Z,22.30
2018-07-19T09:30:00.199Z,22.30
2018-07-19T09:32:29.298Z,22.40
2018-07-19T09:34:58.130Z,22.50
2018-07-19T09:37:27.190Z,22.60
2018-07-19T09:39:56.177Z,22.60
2018-07-19T09:42:25.202Z,22.40
2018-07-19T09:44:54.322Z,22.50
2018-07-19T09:47:23.283Z,22.50
2018-07-19T09:49:52.399Z,22.60
2018-07-19T09:52:21.363Z,22.50
2018-07-19T09:54:57.259Z,22.40
2018-07-19T09:57:26.999Z,22.20
2018-07-19T09:59:56.090Z,22.60
2018-07-19T10:02:25.322Z,22.50
2018-07-19T10:04:54.394Z,22.50
2018-07-19T10:07:23.414Z,22.30
2018-07-19T10:09:52.435Z,22.50
2018-07-19T10:12:21.396Z,22.70
2018-07-19T10:14:50.385Z,22.70
2018-07-19T10:17:19.639Z,22.80
2018-07-19T10:19:48.642Z,22.90
2018-07-19T10:22:17.678Z,22.60
2018-07-19T10:24:46.820Z,22.80
2018-07-19T10:27:15.802Z,22.70
2018-07-19T10:29:44.964Z,22.50
2018-07-19T10:32:14.013Z,22.60
2018-07-19T10:34:42.869Z,22.60
2018-07-19T10:37:12.014Z,22.40
2018-07-19T10:39:41.004Z,22.70
2018-07-19T10:42:10.967Z,22.70
2018-07-19T10:44:39.949Z,22.80
2018-07-19T10:47:08.882Z,22.90
2018-07-19T10:49:37.874Z,23.10
2018-07-19T10:52:06.847Z,23.20
2018-07-19T10:54:35.811Z,23.30
2018-07-19T10:57:04.764Z,23.30
2018-07-19T10:59:33.792Z,23.10
2018-07-19T11:02:02.674Z,23.10
2018-07-19T11:04:31.633Z,23.30
2018-07-19T11:07:00.609Z,23.10
2018-07-19T11:09:29.502Z,22.90
2018-07-19T11:11:58.560Z,22.90
2018-07-19T11:14:27.507Z,23.10
2018-07-19T11:16:56.414Z,23.00
2018-07-19T11:19:25.386Z,23.00
2018-07-19T11:21:54.530Z,23.20
2018-07-19T11:24:23.494Z,22.80
2018-07-19T11:26:52.431Z,23.00
2018-07-19T11:29:22.253Z,22.90
2018-07-19T11:31:51.248Z,23.10
2018-07-19T11:34:20.203Z,23.10
2018-07-19T11:36:49.508Z,22.90
2018-07-19T11:39:18.521Z,23.50
2018-07-19T11:41:47.878Z,23.60
2018-07-19T11:44:16.849Z,23.60
2018-07-19T11:46:46.291Z,23.80
2018-07-19T11:49:15.242Z,23.70
2018-07-19T11:51:44.275Z,23.80
2018-07-19T11:54:13.206Z,23.60
2018-07-19T11:56:42.015Z,23.80
2018-07-19T11:59:11.020Z,24.20
2018-07-19T12:01:40.177Z,23.60
2018-07-19T12:04:09.046Z,23.70
2018-07-19T12:06:37.996Z,23.60
2018-07-19T12:09:09.688Z,23.90
2018-07-19T12:11:38.674Z,23.80
2018-07-19T12:14:07.814Z,24.20
2018-07-19T12:16:36.755Z,24.10
2018-07-19T12:19:05.825Z,24.10
2018-07-19T12:21:34.855Z,24.30
2018-07-19T12:24:03.832Z,24.40
2018-07-19T12:26:32.831Z,24.20
2018-07-19T12:29:01.847Z,24.10
2018-07-19T12:31:30.811Z,24.20
2018-07-19T12:33:59.784Z,24.50
2018-07-19T12:36:28.766Z,24.60
2018-07-19T12:38:57.818Z,24.40
2018-07-19T12:41:26.798Z,24.80
2018-07-19T12:43:55.726Z,25.10
2018-07-19T12:46:24.726Z,25.40
2018-07-19T12:48:53.762Z,25.50
2018-07-19T12:51:22.713Z,25.80
2018-07-19T12:53:51.688Z,27.90
2018-07-19T12:56:20.677Z,28.10
2018-07-19T12:58:49.690Z,28.60
2018-07-19T13:01:18.703Z,29.50
2018-07-19T13:03:47.647Z,30.00
2018-07-19T13:06:16.679Z,30.10
2018-07-19T13:08:45.590Z,30.90
2018-07-19T13:11:14.491Z,30.40
2018-07-19T13:13:43.796Z,31.20
2018-07-19T13:16:13.216Z,32.60
2018-07-19T13:18:42.140Z,31.40
2018-07-19T13:21:11.217Z,32.10
2018-07-19T13:23:40.413Z,32.00
2018-07-19T13:26:10.026Z,32.50
2018-07-19T13:28:39.070Z,32.20
2018-07-19T13:31:08.009Z,33.70
2018-07-19T13:33:36.983Z,33.80
2018-07-19T13:36:06.150Z,34.00
2018-07-19T13:38:35.224Z,35.20
2018-07-19T13:41:04.768Z,33.90
2018-07-19T13:43:33.736Z,33.90
2018-07-19T13:46:02.748Z,34.30
2018-07-19T13:48:31.881Z,35.00
2018-07-19T13:51:01.028Z,35.10
2018-07-19T13:54:40.236Z,33.90
2018-07-19T13:57:09.228Z,35.40
2018-07-19T13:59:38.270Z,35.30
2018-07-19T14:02:07.346Z,32.50
2018-07-19T14:04:36.334Z,33.90
2018-07-19T14:07:05.429Z,35.30
2018-07-19T14:09:34.411Z,35.10
2018-07-19T14:12:03.517Z,35.80
2018-07-19T14:14:32.399Z,35.60
2018-07-19T14:17:01.360Z,36.10
2018-07-19T14:19:30.291Z,34.30
2018-07-19T14:21:59.322Z,35.60
2018-07-19T14:24:28.382Z,33.80
2018-07-19T14:26:57.395Z,35.10
2018-07-19T14:29:26.430Z,36.30
2018-07-19T14:31:55.415Z,35.50
2018-07-19T14:34:25.407Z,32.60
2018-07-19T14:36:54.423Z,35.10
2018-07-19T14:39:23.410Z,35.50
2018-07-19T14:41:52.380Z,35.50
2018-07-19T14:44:21.515Z,33.90
2018-07-19T14:46:50.470Z,33.70
2018-07-19T14:49:19.543Z,32.10
2018-07-19T14:51:48.564Z,32.50
2018-07-19T14:54:17.598Z,33.70
2018-07-19T14:56:46.644Z,33.70
2018-07-19T14:59:15.596Z,33.10
2018-07-19T15:01:44.538Z,34.00
2018-07-19T15:04:14.478Z,31.70
2018-07-19T15:06:43.502Z,32.70
2018-07-19T15:09:12.687Z,31.60
2018-07-19T15:11:41.642Z,31.50
2018-07-19T15:14:11.591Z,31.70
2018-07-19T15:16:40.537Z,32.10
2018-07-19T15:19:10.545Z,29.90
2018-07-19T15:21:39.580Z,30.60
2018-07-19T15:24:08.561Z,30.90
2018-07-19T15:26:37.502Z,31.20
2018-07-19T15:29:06.507Z,30.10
2018-07-19T15:31:35.478Z,31.00
2018-07-19T15:34:04.447Z,29.70
2018-07-19T15:36:33.482Z,30.30
2018-07-19T15:39:02.348Z,30.50
2018-07-19T15:41:31.279Z,30.70
2018-07-19T15:44:00.171Z,28.40
2018-07-19T15:46:29.202Z,28.00
2018-07-19T15:48:58.230Z,28.90
2018-07-19T15:51:27.118Z,28.50
2018-07-19T15:53:56.067Z,27.70
2018-07-19T15:56:24.995Z,27.30
2018-07-19T15:58:53.979Z,27.20
2018-07-19T16:01:22.979Z,26.50
2018-07-19T16:03:51.878Z,25.80
2018-07-19T16:06:20.788Z,25.10
2018-07-19T16:08:49.871Z,24.80
2018-07-19T16:11:18.919Z,24.60
2018-07-19T16:13:51.000Z,24.00
2018-07-19T16:16:20.064Z,23.50
2018-07-19T16:18:48.959Z,23.60
2018-07-19T16:21:18.011Z,23.20
2018-07-19T16:23:47.087Z,23.20
2018-07-19T16:26:16.202Z,22.80
2018-07-19T16:28:45.424Z,22.70
2018-07-19T16:31:14.481Z,22.70
2018-07-19T16:33:44.103Z,22.80
2018-07-19T16:36:14.072Z,22.80
2018-07-19T16:38:43.056Z,22.90
2018-07-19T16:41:12.049Z,22.80
2018-07-19T16:43:40.964Z,22.70
2018-07-19T16:46:09.992Z,22.80
2018-07-19T16:48:38.962Z,22.70
2018-07-19T16:51:07.884Z,22.60
2018-07-19T16:53:36.877Z,22.50
2018-07-19T16:56:06.046Z,22.60
2018-07-19T16:58:35.021Z,22.60
2018-07-19T17:01:04.089Z,22.40
2018-07-19T17:03:32.911Z,22.40
2018-07-19T17:06:01.731Z,22.40
2018-07-19T17:08:30.554Z,22.50
2018-07-19T17:10:59.334Z,22.20
2018-07-19T17:13:28.458Z,22.30
2018-07-19T17:15:57.255Z,22.20
2018-07-19T17:18:26.047Z,22.30
2018-07-19T17:20:54.951Z,22.20
2018-07-19T17:23:23.734Z,22.10
2018-07-19T17:25:52.500Z,22.20
2018-07-19T17:28:21.360Z,22.00
2018-07-19T17:30:50.414Z,21.80
2018-07-19T17:33:19.211Z,21.80
2018-07-19T17:35:47.984Z,21.90
2018-07-19T17:38:19.628Z,21.90
2018-07-19T17:40:48.495Z,21.90
2018-07-19T17:43:17.395Z,22.00
2018-07-19T17:45:46.343Z,21.90
2018-07-19T17:48:15.229Z,21.90
2018-07-19T17:53:12.450Z,21.70
2018-07-19T17:55:41.262Z,21.60
2018-07-19T17:58:10.102Z,21.70
2018-07-19T18:00:38.898Z,21.60
2018-07-19T18:03:07.782Z,21.60
2018-07-19T18:05:37.578Z,21.50
2018-07-19T18:08:06.401Z,21.40
2018-07-19T18:10:35.262Z,21.40
2018-07-19T18:13:04.089Z,21.20
2018-07-19T18:15:32.849Z,21.30
2018-07-19T18:18:01.717Z,21.30
2018-07-19T18:20:30.522Z,21.30
2018-07-19T18:22:59.487Z,21.30
2018-07-19T18:25:28.336Z,21.20
2018-07-19T18:27:57.269Z,21.10
2018-07-19T18:30:26.102Z,21.00
2018-07-19T18:32:54.910Z,21.10
2018-07-19T18:35:23.748Z,21.00
2018-07-19T18:37:52.475Z,21.00
2018-07-19T18:40:21.941Z,20.90
2018-07-19T18:42:51.809Z,20.90
2018-07-19T18:45:20.743Z,20.80
2018-07-19T18:47:49.630Z,20.70
2018-07-19T18:50:18.406Z,20.70
2018-07-19T18:52:47.261Z,20.70
2018-07-19T18:55:16.113Z,20.70
2018-07-19T18:57:45.082Z,20.50
2018-07-19T19:00:13.916Z,20.40
2018-07-19T19:02:42.831Z,20.40
2018-07-19T19:05:11.616Z,20.30
2018-07-19T19:07:40.550Z,20.30
2018-07-19T19:10:09.559Z,20.20
2018-07-19T19:12:38.506Z,20.20
2018-07-19T19:15:07.922Z,20.10
2018-07-19T19:17:36.745Z,20.10
2018-07-19T19:20:06.031Z,20.00
2018-07-19T19:22:35.023Z,19.90
2018-07-19T19:25:03.962Z,19.80
2018-07-19T19:27:32.787Z,19.80
2018-07-19T19:30:01.592Z,19.70
2018-07-19T19:32:30.379Z,19.50
2018-07-19T19:34:59.114Z,19.40
2018-07-19T19:37:27.903Z,19.30
2018-07-19T19:39:56.736Z,19.30
2018-07-19T19:42:25.619Z,19.10
2018-07-19T19:44:54.429Z,19.10
2018-07-19T19:47:23.342Z,19.00
2018-07-19T19:49:52.135Z,19.00
2018-07-19T19:52:21.143Z,18.80
2018-07-19T19:54:50.372Z,18.80
2018-07-19T19:57:19.177Z,18.70
2018-07-19T19:59:48.094Z,18.70
2018-07-19T20:02:16.940Z,18.60
2018-07-19T20:04:45.715Z,18.60
2018-07-19T20:07:15.471Z,18.50
2018-07-19T20:09:44.389Z,18.50
2018-07-19T20:12:13.280Z,18.40
2018-07-19T20:14:42.098Z,18.30
2018-07-19T20:17:10.936Z,18.20
2018-07-19T20:19:39.755Z,18.20
2018-07-19T20:22:08.592Z,18.10
2018-07-19T20:24:37.387Z,18.10
2018-07-19T20:27:06.131Z,18.00
2018-07-19T20:29:35.039Z,17.90
2018-07-19T20:32:03.944Z,17.90
2018-07-19T20:34:32.733Z,17.80
2018-07-19T20:37:01.571Z,17.70
2018-07-19T20:39:30.368Z,17.70
2018-07-19T20:41:59.173Z,17.70
2018-07-19T20:44:28.045Z,17.60
2018-07-19T20:46:56.899Z,17.60
2018-07-19T20:49:25.696Z,17.60
2018-07-19T20:51:54.441Z,17.50
2018-07-19T20:54:23.193Z,17.50
2018-07-19T20:56:52.065Z,17.50
2018-07-19T20:59:21.111Z,17.40
2018-07-19T21:01:49.882Z,17.40
2018-07-19T21:04:18.703Z,17.50
2018-07-19T21:06:47.523Z,17.50
2018-07-19T21:09:16.309Z,17.60
2018-07-19T21:11:45.227Z,17.60
2018-07-19T21:14:14.018Z,17.60
2018-07-19T21:16:42.864Z,17.60
2018-07-19T21:19:11.609Z,17.60
2018-07-19T21:21:40.417Z,17.50
2018-07-19T21:24:09.223Z,17.50
2018-07-19T21:26:37.998Z,17.40
2018-07-19T21:29:06.883Z,17.40
2018-07-19T21:31:35.695Z,17.30
2018-07-19T21:34:04.537Z,17.30
2018-07-19T21:36:33.411Z,17.20
2018-07-19T21:39:02.275Z,17.20
2018-07-19T21:41:31.245Z,17.10
2018-07-19T21:44:00.069Z,17.00
2018-07-19T21:46:28.899Z,17.00
2018-07-19T21:48:57.699Z,17.00
2018-07-19T21:51:26.552Z,16.90
2018-07-19T21:53:55.362Z,16.80
2018-07-19T21:56:24.217Z,16.80
2018-07-19T21:58:53.103Z,16.70
2018-07-19T22:01:21.958Z,16.60
2018-07-19T22:03:50.784Z,16.60
2018-07-19T22:06:19.646Z,16.60
2018-07-19T22:08:48.432Z,16.60
2018-07-19T22:11:17.254Z,16.50
2018-07-19T22:13:46.094Z,16.50
2018-07-19T22:16:14.894Z,16.40
2018-07-19T22:18:43.787Z,16.40
2018-07-19T22:21:12.603Z,16.30
2018-07-19T22:23:41.375Z,16.30
2018-07-19T22:26:10.168Z,16.30
2018-07-19T22:28:38.929Z,16.30
2018-07-19T22:31:07.729Z,16.20
2018-07-19T22:33:36.557Z,16.20
2018-07-19T22:36:05.402Z,16.10
2018-07-19T22:38:34.306Z,16.10
2018-07-19T22:41:03.102Z,16.00
2018-07-19T22:43:32.028Z,16.00
2018-07-19T22:46:00.881Z,16.00
2018-07-19T22:48:29.691Z,16.00
2018-07-19T22:50:58.450Z,15.90
2018-07-19T22:53:27.227Z,15.80
2018-07-19T22:55:56.082Z,15.80
2018-07-19T22:58:24.938Z,15.80
2018-07-19T23:00:53.776Z,15.70
2018-07-19T23:03:22.878Z,15.60
2018-07-19T23:05:51.685Z,15.60
2018-07-19T23:08:20.528Z,15.60
2018-07-19T23:10:49.404Z,15.60
2018-07-19T23:13:18.171Z,15.50
2018-07-19T23:15:47.027Z,15.50
2018-07-19T23:18:15.833Z,15.50
2018-07-19T23:20:44.636Z,15.50
2018-07-19T23:23:13.359Z,15.50
2018-07-19T23:25:43.141Z,15.50
2018-07-19T23:28:12.005Z,15.50
2018-07-19T23:30:41.142Z,15.50
2018-07-19T23:33:09.975Z,15.40
2018-07-19T23:35:45.485Z,15.40
2018-07-19T23:38:25.370Z,15.40
2018-07-19T23:40:55.312Z,15.30
2018-07-19T23:43:27.430Z,15.30
2018-07-19T23:46:28.494Z,15.30
2018-07-19T23:49:01.451Z,15.30
2018-07-19T23:51:30.270Z,15.20
2018-07-19T23:53:59.167Z,15.20
2018-07-19T23:56:27.965Z,15.20
2018-07-19T23:58:56.725Z,15.10
